Aérodrome :
LOGIN :

S'inscrire | Disclaimer

   EN    FR    IT 

 










Légende :    VFR   VFR Marginal   IFR   IFR Intensif   IFR Très Intensif
Visi : 
Plafond : 
>= 8 km
>= 3000ft
5 à 8 km
1000 à 3000 ft
1500m à 5 km
500 à 1000 ft
800 à 1500m
200 à 500 ft
< 800m
< 200 ft
Symboles :   Orages  Brouillard  Fortes neiges  Fortes précipitations  Vent > 20 kt
SIGMETs :   Divers  Orages  Givrage  Turbulence  Onde Orograph.  Cendres Volcan.







- Altitude de l'aérodrome : 56 ft
- Code IATA : BZR
- Voir les cartes d'approche


LFMU - Beziers / Vias

DERNIER METAR :
  • 200930Z AUTO 02008KT 9999 BKN020 BKN025 BKN039 06/04 Q1012 TEMPO SHRA BKN020TCU

METARs EXPIRÉS :
  • 200900Z AUTO 02009KT 9999 SCT023 BKN034 OVC043 06/04 Q1011 TEMPO SHRA BKN020TCU
  • 200830Z AUTO 02009KT 9999 BKN020 OVC036 06/04 Q1011 TEMPO SHRA BKN020TCU
  • 200800Z AUTO 03009KT 9999 BKN023/// BKN028/// OVC034/// ///TCU 05/04 Q1011 TEMPO RA BKN018 BKN040
  • 200730Z AUTO 03010KT 9999 -DZ BKN021/// BKN034/// OVC045/// ///TCU 05/03 Q1011 TEMPO RA BKN018 BKN040
  • 200700Z AUTO 04012KT 9999 BKN039/// OVC046/// ///TCU 05/03 Q1010 TEMPO RA BKN018 BKN040

TAF TAF LFMU
Valide du 20 à 09h jusqu'au 21 à 09h UTC


200800Z 2009/2109 36012KT 9999 BKN020
TEMPO 2009/2018 SHRA BKN020TCU
BECMG 2018/2020 CAVOK
TEMPO 2020/2109 VRB02KT
ATIS : +33 4 67 90 88 88
Pas de NOTAMs connus pour ce terrain.



MET'MAP, la Météo Aéronautique d'un coup d'oeil ! - Copyright ORBIFLY Décembre 2007 - Disclaimer

ORBIFLY MET'MAP TEAM :

Programmation & Développement : Alexandra Zaïnal
Conception & Développement : Baudouin d'Aumeries
Co-Programmation & Développement : Marc-Olivier Méhu
Soutien technique & logistique : Manuel Goepfert

Contact : metmap@orbifly.com




SOURCES & CREDITS :

   NOAA